Time;durP1;ratioP1;P1;durP2;ratioP2;P2;SDS_P1;SDS_P2;PMS_P1;PMS_P2;Temp;Humidity;BMP_temperature;BMP_pressure;BME280_temperature;BME280_humidity;BME280_pressure;Samples;Min_cycle;Max_cycle;Signal;HPM_P1;HPM_P2
2022/01/05 00:01:46;;;;;;;;;;;23.70;49.20;;;;;;1539823;75;609;-67
2022/01/05 00:03:48;;;;;;;;;;;23.80;49.20;;;;;;1539736;75;736;-66
2022/01/05 00:05:49;;;;;;;;;;;23.80;49.10;;;;;;1545253;75;641;-66
2022/01/05 00:07:51;;;;;;;;;;;23.80;49.10;;;;;;1541785;75;760;-67
2022/01/05 00:09:53;;;;;;;;;;;23.80;49.10;;;;;;1551524;75;1147;-67
2022/01/05 00:11:55;;;;;;;;;;;23.80;49.10;;;;;;1545167;76;780;-68
2022/01/05 00:13:58;;;;;;;;;;;23.70;49.20;;;;;;1548098;75;738;-66
2022/01/05 00:16:00;;;;;;;;;;;23.90;49.20;;;;;;1543441;75;745;-68
2022/01/05 00:18:02;;;;;;;;;;;23.80;49.10;;;;;;1540608;75;816;-68
2022/01/05 00:20:04;;;;;;;;;;;23.90;49.20;;;;;;1539792;76;1945;-67
2022/01/05 00:22:06;;;;;;;;;;;23.80;49.20;;;;;;1540068;75;807;-67
2022/01/05 00:24:08;;;;;;;;;;;23.80;49.10;;;;;;1544486;76;782;-67
2022/01/05 00:26:10;;;;;;;;;;;23.80;49.10;;;;;;1545736;75;783;-66
2022/01/05 00:28:12;;;;;;;;;;;23.90;49.30;;;;;;1552291;75;729;-66
2022/01/05 00:30:14;;;;;;;;;;;23.80;49.20;;;;;;1541571;75;1122;-66
2022/01/05 00:32:16;;;;;;;;;;;23.90;49.20;;;;;;1540798;75;779;-66
2022/01/05 00:34:18;;;;;;;;;;;23.90;49.20;;;;;;1542269;75;792;-67
2022/01/05 00:36:20;;;;;;;;;;;23.90;49.20;;;;;;1542854;75;724;-66
2022/01/05 00:38:21;;;;;;;;;;;23.90;49.20;;;;;;1537332;75;783;-65
2022/01/05 00:40:23;;;;;;;;;;;23.90;49.10;;;;;;1540914;75;1954;-67
2022/01/05 00:42:25;;;;;;;;;;;23.90;49.20;;;;;;1544675;75;692;-67
2022/01/05 00:44:27;;;;;;;;;;;23.90;49.20;;;;;;1546729;75;741;-68
2022/01/05 00:46:29;;;;;;;;;;;23.90;49.20;;;;;;1545732;75;1034;-66
2022/01/05 00:48:32;;;;;;;;;;;23.90;49.20;;;;;;1543127;75;764;-67
2022/01/05 00:50:34;;;;;;;;;;;23.90;49.20;;;;;;1546577;75;1148;-66
2022/01/05 00:52:36;;;;;;;;;;;23.90;49.30;;;;;;1543283;76;852;-66
2022/01/05 00:54:38;;;;;;;;;;;23.90;49.30;;;;;;1543294;75;783;-67
2022/01/05 00:56:40;;;;;;;;;;;23.90;49.30;;;;;;1543522;75;691;-67
2022/01/05 00:58:42;;;;;;;;;;;23.90;49.40;;;;;;1538177;75;700;-67
2022/01/05 01:00:44;;;;;;;;;;;23.90;49.40;;;;;;1536638;76;1933;-67
2022/01/05 01:02:46;;;;;;;;;;;23.80;49.30;;;;;;1536594;75;788;-68
2022/01/05 01:04:47;;;;;;;;;;;23.90;49.40;;;;;;1540589;75;727;-66
2022/01/05 01:06:49;;;;;;;;;;;23.90;49.40;;;;;;1546953;75;775;-68
2022/01/05 01:08:51;;;;;;;;;;;23.90;49.40;;;;;;1537950;75;1145;-68
2022/01/05 01:10:53;;;;;;;;;;;23.90;49.30;;;;;;1544873;75;671;-67
2022/01/05 01:12:55;;;;;;;;;;;23.90;49.30;;;;;;1549084;75;775;-67
2022/01/05 01:14:57;;;;;;;;;;;23.90;49.40;;;;;;1563765;75;791;-65
2022/01/05 01:16:59;;;;;;;;;;;23.90;49.40;;;;;;1550060;75;755;-67
2022/01/05 01:19:00;;;;;;;;;;;23.90;49.40;;;;;;1555434;75;1954;-66
2022/01/05 01:21:03;;;;;;;;;;;23.90;49.40;;;;;;1559337;76;720;-67
2022/01/05 01:23:05;;;;;;;;;;;23.90;49.40;;;;;;1547526;75;719;-67
2022/01/05 01:25:07;;;;;;;;;;;23.90;49.40;;;;;;1563675;75;757;-67
2022/01/05 01:27:09;;;;;;;;;;;24.00;49.40;;;;;;1571883;75;739;-67
2022/01/05 01:29:11;;;;;;;;;;;23.90;49.40;;;;;;1552245;76;1156;-68
2022/01/05 01:31:12;;;;;;;;;;;24.00;49.40;;;;;;1554357;75;701;-67
2022/01/05 01:33:14;;;;;;;;;;;24.00;49.40;;;;;;1555573;75;747;-68
2022/01/05 01:35:16;;;;;;;;;;;24.00;49.40;;;;;;1559344;75;712;-67
2022/01/05 01:37:18;;;;;;;;;;;23.90;49.40;;;;;;1556599;75;756;-68
2022/01/05 01:39:20;;;;;;;;;;;23.90;49.40;;;;;;1557721;75;1946;-67
2022/01/05 01:41:22;;;;;;;;;;;23.90;49.40;;;;;;1560581;76;804;-67
2022/01/05 01:43:24;;;;;;;;;;;23.90;49.40;;;;;;1554204;76;708;-66
2022/01/05 01:45:27;;;;;;;;;;;24.00;49.40;;;;;;1562040;75;800;-67
2022/01/05 01:47:29;;;;;;;;;;;23.90;49.40;;;;;;1556399;75;765;-68
2022/01/05 01:49:31;;;;;;;;;;;23.90;49.40;;;;;;1545264;75;1158;-67
2022/01/05 01:51:33;;;;;;;;;;;24.00;49.50;;;;;;1559151;75;766;-67
2022/01/05 01:53:34;;;;;;;;;;;23.90;49.40;;;;;;1556681;75;699;-67
2022/01/05 01:55:36;;;;;;;;;;;24.00;49.40;;;;;;1546101;76;743;-67
2022/01/05 01:57:40;;;;;;;;;;;23.90;49.40;;;;;;1554278;75;797;-68
2022/01/05 01:59:42;;;;;;;;;;;24.00;49.50;;;;;;1547860;75;1942;-67
2022/01/05 02:01:44;;;;;;;;;;;23.90;49.50;;;;;;1532196;77;1188;-67
2022/01/05 02:03:46;;;;;;;;;;;23.90;49.50;;;;;;1502885;79;722;-67
2022/01/05 02:05:47;;;;;;;;;;;23.90;49.50;;;;;;1513866;76;791;-67
2022/01/05 02:07:49;;;;;;;;;;;23.90;49.50;;;;;;1501484;79;730;-66
2022/01/05 02:09:51;;;;;;;;;;;23.90;49.50;;;;;;1501236;78;1153;-67
2022/01/05 02:11:53;;;;;;;;;;;24.00;49.50;;;;;;1530140;77;795;-67
2022/01/05 02:13:55;;;;;;;;;;;23.90;49.50;;;;;;1522121;77;744;-67
2022/01/05 02:15:57;;;;;;;;;;;23.90;49.50;;;;;;1530059;77;741;-67
2022/01/05 02:20:07;;;;;;;;;;;23.90;49.60;;;;;;1519413;77;1924;-67
2022/01/05 02:22:09;;;;;;;;;;;23.90;49.70;;;;;;1527692;76;1761;-66
2022/01/05 02:24:11;;;;;;;;;;;23.90;49.70;;;;;;1529314;77;779;-67
2022/01/05 02:26:13;;;;;;;;;;;23.90;49.70;;;;;;1508500;77;723;-68
2022/01/05 02:28:15;;;;;;;;;;;23.90;49.70;;;;;;1514585;77;752;-67
2022/01/05 02:30:18;;;;;;;;;;;24.00;49.60;;;;;;1517286;77;1158;-68
2022/01/05 02:32:20;;;;;;;;;;;24.00;49.60;;;;;;1510711;77;1508;-68
2022/01/05 02:34:22;;;;;;;;;;;23.90;49.50;;;;;;1512736;77;765;-69
2022/01/05 02:36:24;;;;;;;;;;;23.90;49.60;;;;;;1509907;77;766;-68
2022/01/05 02:38:26;;;;;;;;;;;24.00;49.60;;;;;;1509627;77;676;-67
2022/01/05 02:40:27;;;;;;;;;;;24.00;49.50;;;;;;1515030;77;1940;-67
2022/01/05 02:42:30;;;;;;;;;;;23.90;49.50;;;;;;1516145;77;748;-67
2022/01/05 02:44:31;;;;;;;;;;;23.90;49.50;;;;;;1512580;77;721;-63
2022/01/05 02:46:34;;;;;;;;;;;23.90;49.50;;;;;;1518592;77;697;-67
2022/01/05 02:48:36;;;;;;;;;;;23.90;49.50;;;;;;1511047;77;703;-67
2022/01/05 02:50:38;;;;;;;;;;;23.90;49.50;;;;;;1514379;77;1130;-67
2022/01/05 02:52:40;;;;;;;;;;;23.90;49.50;;;;;;1519390;77;778;-66
2022/01/05 02:54:42;;;;;;;;;;;23.90;49.50;;;;;;1512551;77;719;-67
2022/01/05 02:56:44;;;;;;;;;;;23.90;49.50;;;;;;1518682;77;812;-67
2022/01/05 02:58:46;;;;;;;;;;;23.90;49.50;;;;;;1514306;77;1098;-66
2022/01/05 03:00:48;;;;;;;;;;;23.90;49.40;;;;;;1514543;77;1932;-68
2022/01/05 03:02:50;;;;;;;;;;;23.90;49.40;;;;;;1514837;77;727;-68
2022/01/05 03:04:52;;;;;;;;;;;23.90;49.50;;;;;;1520936;77;737;-67
2022/01/05 03:06:53;;;;;;;;;;;23.90;49.50;;;;;;1513102;77;776;-67
2022/01/05 03:08:55;;;;;;;;;;;23.90;49.50;;;;;;1518583;77;1128;-67
2022/01/05 03:10:57;;;;;;;;;;;23.80;49.40;;;;;;1514531;77;733;-67
2022/01/05 03:12:59;;;;;;;;;;;23.90;49.40;;;;;;1514234;77;925;-66
2022/01/05 03:15:01;;;;;;;;;;;23.80;49.40;;;;;;1508470;77;706;-67
2022/01/05 03:17:03;;;;;;;;;;;23.90;49.50;;;;;;1510371;77;710;-66
2022/01/05 03:19:05;;;;;;;;;;;23.90;49.60;;;;;;1510279;77;1167;-66
2022/01/05 03:21:07;;;;;;;;;;;23.90;49.60;;;;;;1516876;77;1967;-67
2022/01/05 03:23:09;;;;;;;;;;;23.90;49.60;;;;;;1506262;77;799;-68
2022/01/05 03:25:16;;;;;;;;;;;23.90;49.60;;;;;;1515113;77;729;-66
2022/01/05 03:27:14;;;;;;;;;;;23.90;49.70;;;;;;1513890;77;1514;-66
2022/01/05 03:29:16;;;;;;;;;;;23.90;49.60;;;;;;1520632;77;1147;-66
2022/01/05 03:31:18;;;;;;;;;;;23.90;49.70;;;;;;1510740;77;728;-67
2022/01/05 03:33:21;;;;;;;;;;;23.90;49.70;;;;;;1512842;77;781;-66
2022/01/05 03:35:23;;;;;;;;;;;23.90;49.70;;;;;;1515438;77;808;-66
2022/01/05 03:37:25;;;;;;;;;;;23.90;49.70;;;;;;1509647;77;722;-67
2022/01/05 03:39:27;;;;;;;;;;;24.00;49.60;;;;;;1508895;77;1144;-67
2022/01/05 03:41:28;;;;;;;;;;;24.00;49.60;;;;;;1508435;77;1949;-67
2022/01/05 03:43:30;;;;;;;;;;;24.00;49.60;;;;;;1507412;77;752;-64
2022/01/05 03:45:32;;;;;;;;;;;24.00;49.50;;;;;;1514130;77;792;-68
2022/01/05 03:47:34;;;;;;;;;;;24.00;49.50;;;;;;1513624;77;742;-68
2022/01/05 03:49:36;;;;;;;;;;;24.00;49.60;;;;;;1522947;77;1210;-67
2022/01/05 03:51:38;;;;;;;;;;;24.00;49.50;;;;;;1520398;77;756;-66
2022/01/05 03:53:40;;;;;;;;;;;24.00;49.60;;;;;;1514507;77;1058;-65
2022/01/05 03:55:42;;;;;;;;;;;24.00;49.60;;;;;;1511747;77;701;-67
2022/01/05 03:57:44;;;;;;;;;;;24.10;49.60;;;;;;1510543;77;772;-67
2022/01/05 03:59:46;;;;;;;;;;;24.10;49.50;;;;;;1515654;77;1155;-67
2022/01/05 04:01:48;;;;;;;;;;;24.10;49.50;;;;;;1510489;77;1942;-67
2022/01/05 04:03:50;;;;;;;;;;;24.20;49.40;;;;;;1506415;77;682;-67
2022/01/05 04:05:51;;;;;;;;;;;24.20;49.40;;;;;;1514551;77;754;-67
2022/01/05 04:07:53;;;;;;;;;;;24.10;49.50;;;;;;1516067;77;734;-68
2022/01/05 04:09:55;;;;;;;;;;;24.10;49.60;;;;;;1511532;77;1136;-67
2022/01/05 04:11:57;;;;;;;;;;;24.00;49.60;;;;;;1512771;77;714;-68
2022/01/05 04:13:59;;;;;;;;;;;24.00;49.70;;;;;;1512855;77;812;-67
2022/01/05 04:16:01;;;;;;;;;;;23.90;49.70;;;;;;1513940;77;692;-67
2022/01/05 04:18:03;;;;;;;;;;;23.90;49.80;;;;;;1509216;77;1030;-67
2022/01/05 04:20:05;;;;;;;;;;;23.90;50.00;;;;;;1510760;77;1953;-67
2022/01/05 04:22:07;;;;;;;;;;;23.90;49.90;;;;;;1506652;77;789;-67
2022/01/05 04:24:09;;;;;;;;;;;24.00;49.80;;;;;;1508654;77;649;-67
2022/01/05 04:26:11;;;;;;;;;;;23.90;49.80;;;;;;1483479;79;772;-68
2022/01/05 04:28:13;;;;;;;;;;;24.00;49.70;;;;;;1498015;79;668;-67
2022/01/05 04:30:15;;;;;;;;;;;24.00;49.80;;;;;;1502379;79;1144;-68
2022/01/05 04:32:17;;;;;;;;;;;24.00;50.00;;;;;;1506601;79;741;-65
2022/01/05 04:34:19;;;;;;;;;;;23.90;50.10;;;;;;1528757;77;776;-66
2022/01/05 04:36:20;;;;;;;;;;;24.00;50.10;;;;;;1518492;77;811;-65
2022/01/05 04:38:22;;;;;;;;;;;24.00;50.00;;;;;;1527666;77;733;-66
2022/01/05 04:40:24;;;;;;;;;;;24.00;49.80;;;;;;1530095;77;1930;-66
2022/01/05 04:42:26;;;;;;;;;;;24.20;49.70;;;;;;1532037;77;794;-66
2022/01/05 04:44:28;;;;;;;;;;;24.20;49.60;;;;;;1524604;76;803;-66
2022/01/05 04:46:30;;;;;;;;;;;24.20;49.40;;;;;;1529145;77;709;-66
2022/01/05 04:48:32;;;;;;;;;;;24.20;49.40;;;;;;1529016;77;709;-66
2022/01/05 04:50:34;;;;;;;;;;;24.40;49.30;;;;;;1530111;77;1092;-66
2022/01/05 04:52:36;;;;;;;;;;;24.20;49.20;;;;;;1532383;77;659;-65
2022/01/05 04:54:38;;;;;;;;;;;24.30;49.40;;;;;;1531334;77;717;-66
2022/01/05 04:56:40;;;;;;;;;;;24.20;49.30;;;;;;1523648;77;782;-65
2022/01/05 04:58:41;;;;;;;;;;;24.20;49.20;;;;;;1530233;77;809;-66
2022/01/05 05:00:43;;;;;;;;;;;24.20;49.20;;;;;;1532420;77;1944;-66
2022/01/05 05:02:45;;;;;;;;;;;24.30;49.40;;;;;;1530189;77;687;-66
2022/01/05 05:04:47;;;;;;;;;;;24.20;49.20;;;;;;1520690;77;686;-66
2022/01/05 05:06:50;;;;;;;;;;;24.20;49.20;;;;;;1522494;77;773;-66
2022/01/05 05:08:51;;;;;;;;;;;24.20;49.20;;;;;;1530192;77;1140;-66
2022/01/05 05:10:53;;;;;;;;;;;24.20;49.20;;;;;;1530049;77;787;-67
2022/01/05 05:12:55;;;;;;;;;;;24.20;49.20;;;;;;1528406;77;810;-65
2022/01/05 05:14:57;;;;;;;;;;;24.20;49.20;;;;;;1521662;77;775;-66
2022/01/05 05:16:59;;;;;;;;;;;24.20;49.20;;;;;;1514063;77;767;-65
2022/01/05 05:19:01;;;;;;;;;;;24.20;49.20;;;;;;1519657;77;1139;-66
2022/01/05 05:21:03;;;;;;;;;;;24.20;49.30;;;;;;1531399;77;1943;-66
2022/01/05 05:23:05;;;;;;;;;;;24.10;49.20;;;;;;1530140;77;804;-66
2022/01/05 05:25:07;;;;;;;;;;;24.20;49.30;;;;;;1527344;77;682;-67
2022/01/05 05:27:09;;;;;;;;;;;24.20;49.30;;;;;;1527431;77;897;-66
2022/01/05 05:29:11;;;;;;;;;;;24.20;49.30;;;;;;1518631;77;1172;-66
2022/01/05 05:31:12;;;;;;;;;;;24.20;49.30;;;;;;1526547;77;795;-66
2022/01/05 05:33:14;;;;;;;;;;;24.10;49.20;;;;;;1531933;77;807;-65
2022/01/05 05:35:16;;;;;;;;;;;24.20;49.30;;;;;;1525993;77;704;-65
2022/01/05 05:37:18;;;;;;;;;;;24.20;49.20;;;;;;1530229;77;1072;-65
2022/01/05 05:39:20;;;;;;;;;;;24.20;49.20;;;;;;1529305;77;1148;-65
2022/01/05 05:41:22;;;;;;;;;;;24.20;49.20;;;;;;1530110;77;1939;-65
2022/01/05 05:43:24;;;;;;;;;;;24.10;49.20;;;;;;1526962;77;702;-64
2022/01/05 05:45:26;;;;;;;;;;;24.10;49.20;;;;;;1530098;76;790;-66
2022/01/05 05:47:28;;;;;;;;;;;24.20;49.20;;;;;;1519825;77;736;-67
2022/01/05 05:49:30;;;;;;;;;;;24.00;49.10;;;;;;1520000;77;1189;-65
2022/01/05 05:51:32;;;;;;;;;;;24.10;49.20;;;;;;1521047;77;752;-66
2022/01/05 05:53:34;;;;;;;;;;;24.10;49.20;;;;;;1531214;77;743;-65
2022/01/05 05:55:35;;;;;;;;;;;24.10;49.20;;;;;;1522992;77;781;-65
2022/01/05 05:57:37;;;;;;;;;;;24.20;49.20;;;;;;1525409;77;787;-66
2022/01/05 05:59:39;;;;;;;;;;;24.10;49.20;;;;;;1527561;77;1093;-65
2022/01/05 06:01:41;;;;;;;;;;;24.10;49.20;;;;;;1526816;77;1928;-65
2022/01/05 06:03:43;;;;;;;;;;;24.20;49.10;;;;;;1523892;76;652;-66
2022/01/05 06:05:45;;;;;;;;;;;24.20;49.10;;;;;;1518662;77;736;-66
2022/01/05 06:07:47;;;;;;;;;;;24.10;49.00;;;;;;1529718;77;744;-65
2022/01/05 06:09:48;;;;;;;;;;;24.10;49.10;;;;;;1527481;77;1136;-64
2022/01/05 06:11:50;;;;;;;;;;;24.20;49.20;;;;;;1516429;77;725;-66
2022/01/05 06:13:52;;;;;;;;;;;24.20;49.20;;;;;;1530169;77;687;-66
2022/01/05 06:15:54;;;;;;;;;;;24.10;49.20;;;;;;1532381;77;756;-65
2022/01/05 06:17:56;;;;;;;;;;;24.20;49.10;;;;;;1519733;77;806;-67
2022/01/05 06:19:58;;;;;;;;;;;24.20;49.10;;;;;;1522291;77;1187;-65
2022/01/05 06:22:00;;;;;;;;;;;24.20;49.10;;;;;;1530306;77;1916;-66
2022/01/05 06:24:02;;;;;;;;;;;24.10;49.10;;;;;;1517880;77;787;-66
2022/01/05 06:26:04;;;;;;;;;;;24.00;48.90;;;;;;1530004;77;805;-65
2022/01/05 06:28:11;;;;;;;;;;;24.10;49.10;;;;;;1524874;77;747;-65
2022/01/05 06:30:09;;;;;;;;;;;24.10;49.10;;;;;;1529965;77;1373;-66
2022/01/05 06:32:11;;;;;;;;;;;24.10;49.10;;;;;;1521174;77;737;-66
2022/01/05 06:34:13;;;;;;;;;;;24.10;49.10;;;;;;1530788;77;706;-66
2022/01/05 06:36:15;;;;;;;;;;;24.00;48.90;;;;;;1499727;79;715;-67
2022/01/05 06:38:17;;;;;;;;;;;24.10;49.10;;;;;;1524594;78;746;-67
2022/01/05 06:40:19;;;;;;;;;;;24.20;49.00;;;;;;1504327;79;1145;-65
2022/01/05 06:42:21;;;;;;;;;;;24.10;49.00;;;;;;1530196;77;1940;-65
2022/01/05 06:44:23;;;;;;;;;;;24.20;49.00;;;;;;1530706;77;784;-66
2022/01/05 06:46:24;;;;;;;;;;;24.00;48.90;;;;;;1523638;77;818;-66
2022/01/05 06:48:26;;;;;;;;;;;24.10;49.10;;;;;;1525420;77;795;-66
2022/01/05 06:50:28;;;;;;;;;;;24.10;49.10;;;;;;1528752;77;1162;-65
2022/01/05 06:52:30;;;;;;;;;;;24.00;49.00;;;;;;1517743;77;680;-66
2022/01/05 06:54:32;;;;;;;;;;;24.10;49.10;;;;;;1528678;77;718;-66
2022/01/05 06:56:34;;;;;;;;;;;24.10;49.10;;;;;;1530162;77;724;-65
2022/01/05 06:58:36;;;;;;;;;;;24.00;49.00;;;;;;1527747;77;736;-66
2022/01/05 07:00:37;;;;;;;;;;;24.00;49.00;;;;;;1529862;77;1100;-66
2022/01/05 07:02:39;;;;;;;;;;;24.00;49.00;;;;;;1517078;77;1949;-67
2022/01/05 07:04:41;;;;;;;;;;;24.00;49.00;;;;;;1522560;77;774;-66
2022/01/05 07:06:43;;;;;;;;;;;24.00;49.00;;;;;;1523955;77;717;-66
2022/01/05 07:08:45;;;;;;;;;;;24.00;49.00;;;;;;1532250;77;1097;-64
2022/01/05 07:10:47;;;;;;;;;;;24.00;49.10;;;;;;1527367;76;952;-65
2022/01/05 07:12:49;;;;;;;;;;;24.00;49.10;;;;;;1525642;77;756;-66
2022/01/05 07:14:51;;;;;;;;;;;24.00;49.10;;;;;;1530167;77;802;-66
2022/01/05 07:16:52;;;;;;;;;;;24.00;49.10;;;;;;1525282;77;680;-65
2022/01/05 07:18:54;;;;;;;;;;;24.00;49.10;;;;;;1519466;77;1163;-65
2022/01/05 07:20:56;;;;;;;;;;;24.00;49.20;;;;;;1521801;77;730;-65
2022/01/05 07:22:58;;;;;;;;;;;24.10;49.20;;;;;;1530068;77;1948;-65
2022/01/05 07:25:00;;;;;;;;;;;24.10;49.20;;;;;;1520443;77;609;-66
2022/01/05 07:27:02;;;;;;;;;;;24.10;49.20;;;;;;1531991;77;698;-67
2022/01/05 07:29:04;;;;;;;;;;;24.10;49.20;;;;;;1528153;77;1167;-67
2022/01/05 07:31:06;;;;;;;;;;;24.00;49.00;;;;;;1531132;77;782;-65
2022/01/05 07:33:07;;;;;;;;;;;24.00;49.00;;;;;;1526509;77;804;-65
2022/01/05 07:35:09;;;;;;;;;;;24.00;49.10;;;;;;1530174;77;737;-65
2022/01/05 07:37:11;;;;;;;;;;;24.00;49.10;;;;;;1530058;77;725;-66
2022/01/05 07:39:13;;;;;;;;;;;24.00;49.00;;;;;;1530105;77;1136;-65
2022/01/05 07:41:15;;;;;;;;;;;24.00;49.10;;;;;;1527894;77;745;-65
2022/01/05 07:43:17;;;;;;;;;;;24.00;49.10;;;;;;1524957;77;1848;-67
2022/01/05 07:45:19;;;;;;;;;;;24.00;49.20;;;;;;1525378;77;729;-67
2022/01/05 07:47:21;;;;;;;;;;;24.10;49.30;;;;;;1530194;77;732;-65
2022/01/05 07:49:23;;;;;;;;;;;24.00;49.30;;;;;;1522368;77;1181;-66
2022/01/05 07:51:24;;;;;;;;;;;24.00;49.20;;;;;;1529907;77;728;-67
2022/01/05 07:53:26;;;;;;;;;;;24.00;49.30;;;;;;1511698;77;786;-67
2022/01/05 07:55:30;;;;;;;;;;;23.90;49.20;;;;;;1519448;77;737;-67
2022/01/05 07:57:32;;;;;;;;;;;24.00;49.20;;;;;;1522222;77;1078;-68
2022/01/05 07:59:34;;;;;;;;;;;24.00;49.30;;;;;;1522765;77;1132;-68
2022/01/05 08:01:36;;;;;;;;;;;23.90;49.30;;;;;;1515158;77;1934;-67
2022/01/05 08:03:37;;;;;;;;;;;24.00;49.30;;;;;;1517331;77;818;-66
2022/01/05 08:05:39;;;;;;;;;;;24.00;49.30;;;;;;1517900;76;757;-68
2022/01/05 08:07:41;;;;;;;;;;;23.90;49.30;;;;;;1518561;77;736;-66
2022/01/05 08:09:43;;;;;;;;;;;23.90;49.40;;;;;;1518722;77;1183;-66
2022/01/05 08:11:45;;;;;;;;;;;23.90;49.40;;;;;;1517296;77;1144;-67
2022/01/05 08:13:47;;;;;;;;;;;24.00;49.40;;;;;;1511326;77;752;-67
2022/01/05 08:15:49;;;;;;;;;;;24.00;49.40;;;;;;1510079;77;810;-67
2022/01/05 08:17:51;;;;;;;;;;;24.00;49.40;;;;;;1517040;77;668;-68
2022/01/05 08:19:53;;;;;;;;;;;24.00;49.40;;;;;;1514714;77;1105;-66
2022/01/05 08:21:55;;;;;;;;;;;24.00;49.40;;;;;;1519551;77;1943;-67
2022/01/05 08:23:56;;;;;;;;;;;23.90;49.40;;;;;;1516739;77;803;-67
2022/01/05 08:25:58;;;;;;;;;;;24.00;49.40;;;;;;1518743;77;805;-66
2022/01/05 08:28:00;;;;;;;;;;;23.90;49.60;;;;;;1523496;77;698;-67
2022/01/05 08:30:05;;;;;;;;;;;23.90;49.70;;;;;;1528743;77;1199;-67
2022/01/05 08:32:06;;;;;;;;;;;24.00;49.60;;;;;;1530117;76;1580;-67
2022/01/05 08:34:09;;;;;;;;;;;24.00;49.50;;;;;;1528899;77;735;-69
2022/01/05 08:36:11;;;;;;;;;;;23.90;49.50;;;;;;1524977;77;782;-67
2022/01/05 08:38:13;;;;;;;;;;;23.90;49.40;;;;;;1525349;77;694;-66
2022/01/05 08:40:15;;;;;;;;;;;24.00;49.40;;;;;;1530092;77;1136;-67
2022/01/05 08:42:18;;;;;;;;;;;23.90;49.30;;;;;;1530788;77;1928;-67
2022/01/05 08:44:20;;;;;;;;;;;23.90;49.30;;;;;;1525938;77;792;-67
2022/01/05 08:46:22;;;;;;;;;;;23.90;49.20;;;;;;1523323;77;717;-67
2022/01/05 08:48:24;;;;;;;;;;;23.90;49.20;;;;;;1521758;77;621;-67
2022/01/05 08:50:26;;;;;;;;;;;23.90;49.10;;;;;;1526854;77;1135;-67
2022/01/05 08:52:28;;;;;;;;;;;23.90;48.90;;;;;;1530329;77;721;-67
2022/01/05 08:54:30;;;;;;;;;;;23.90;48.90;;;;;;1527160;77;700;-66
2022/01/05 08:56:32;;;;;;;;;;;23.90;48.90;;;;;;1525317;77;737;-67
2022/01/05 08:58:34;;;;;;;;;;;23.90;48.80;;;;;;1530214;77;767;-68
2022/01/05 09:00:36;;;;;;;;;;;23.90;48.90;;;;;;1528622;77;1097;-67
2022/01/05 09:02:38;;;;;;;;;;;23.90;48.80;;;;;;1530081;77;1914;-68
2022/01/05 09:04:40;;;;;;;;;;;23.90;48.80;;;;;;1504450;77;740;-68
2022/01/05 09:06:42;;;;;;;;;;;23.90;48.70;;;;;;1523230;77;767;-68
2022/01/05 09:08:44;;;;;;;;;;;23.90;48.60;;;;;;1530143;77;799;-69
2022/01/05 09:10:46;;;;;;;;;;;23.90;48.50;;;;;;1529430;77;777;-68
2022/01/05 09:12:48;;;;;;;;;;;23.90;48.50;;;;;;1527707;77;779;-66
2022/01/05 09:14:50;;;;;;;;;;;23.90;48.50;;;;;;1520705;77;733;-67
2022/01/05 09:16:52;;;;;;;;;;;23.90;48.40;;;;;;1514396;77;786;-67
2022/01/05 09:18:54;;;;;;;;;;;23.90;48.40;;;;;;1512469;77;1164;-67
2022/01/05 09:20:56;;;;;;;;;;;24.00;48.40;;;;;;1520606;77;724;-67
2022/01/05 09:22:58;;;;;;;;;;;23.90;48.30;;;;;;1513303;77;1927;-68
2022/01/05 09:25:00;;;;;;;;;;;23.90;48.30;;;;;;1530179;77;690;-68
2022/01/05 09:27:04;;;;;;;;;;;23.90;48.40;;;;;;1531688;77;780;-68
2022/01/05 09:29:05;;;;;;;;;;;24.00;48.30;;;;;;1486187;78;1609;-67
2022/01/05 09:31:07;;;;;;;;;;;23.90;48.30;;;;;;1495706;79;706;-68
2022/01/05 09:33:09;;;;;;;;;;;24.00;48.20;;;;;;1514976;78;781;-67
2022/01/05 09:35:20;;;;;;;;;;;23.90;48.30;;;;;;1490734;78;731;-67
2022/01/05 09:37:22;;;;;;;;;;;23.90;48.40;;;;;;1479828;77;1430;-67
2022/01/05 09:41:56;;;;;;;;;;;23.90;48.40;;;;;;1515113;77;1631;-69
2022/01/05 09:43:59;;;;;;;;;;;23.90;48.30;;;;;;1508730;77;1915;-69
2022/01/05 09:46:05;;;;;;;;;;;24.00;48.40;;;;;;1486089;78;820;-68
2022/01/05 09:48:11;;;;;;;;;;;23.90;48.40;;;;;;1522420;77;1070;-68
2022/01/05 09:50:13;;;;;;;;;;;23.90;48.40;;;;;;1519279;77;1146;-67
2022/01/05 09:52:15;;;;;;;;;;;23.90;48.50;;;;;;1519420;77;801;-67
2022/01/05 09:54:17;;;;;;;;;;;23.80;48.50;;;;;;1518840;77;745;-67
2022/01/05 09:56:19;;;;;;;;;;;23.80;48.50;;;;;;1500644;77;1028;-67
2022/01/05 09:58:21;;;;;;;;;;;23.80;48.60;;;;;;1516990;77;723;-69
2022/01/05 10:00:23;;;;;;;;;;;23.80;48.60;;;;;;1510984;77;1120;-70
2022/01/05 10:02:25;;;;;;;;;;;23.90;48.10;;;;;;1511232;77;1933;-69
2022/01/05 10:04:26;;;;;;;;;;;23.80;46.70;;;;;;1516069;77;707;-67
2022/01/05 10:06:28;;;;;;;;;;;23.80;46.40;;;;;;1526421;77;708;-67
2022/01/05 10:08:31;;;;;;;;;;;23.70;46.80;;;;;;1538467;77;597;-68
2022/01/05 10:10:33;;;;;;;;;;;23.70;47.30;;;;;;1535621;77;1155;-66
2022/01/05 10:12:35;;;;;;;;;;;23.70;47.50;;;;;;1488890;79;753;-67
2022/01/05 10:14:40;;;;;;;;;;;23.70;47.60;;;;;;1487840;78;786;-68
2022/01/05 10:16:43;;;;;;;;;;;23.80;47.80;;;;;;1486818;79;806;-67
2022/01/05 10:18:45;;;;;;;;;;;23.80;47.70;;;;;;1488932;78;703;-66
2022/01/05 10:21:01;;;;;;;;;;;23.80;47.80;;;;;;1530556;77;743;-67
2022/01/05 10:23:03;;;;;;;;;;;23.80;47.80;;;;;;1527004;77;1895;-67
2022/01/05 10:25:06;;;;;;;;;;;23.80;47.80;;;;;;1526776;77;737;-69
2022/01/05 10:27:08;;;;;;;;;;;23.80;47.80;;;;;;1524121;77;734;-67
2022/01/05 10:29:23;;;;;;;;;;;23.90;47.80;;;;;;1527823;77;1148;-66
2022/01/05 10:31:24;;;;;;;;;;;23.80;47.70;;;;;;1527164;77;1246;-67
2022/01/05 10:33:29;;;;;;;;;;;23.80;47.70;;;;;;1525905;77;776;-68
2022/01/05 10:35:31;;;;;;;;;;;23.80;47.70;;;;;;1494457;79;734;-66
2022/01/05 10:37:33;;;;;;;;;;;23.80;47.70;;;;;;1533033;76;777;-66
2022/01/05 10:39:38;;;;;;;;;;;23.80;47.70;;;;;;1532289;76;1120;-67
2022/01/05 10:41:39;;;;;;;;;;;23.90;47.80;;;;;;1531216;75;1588;-68
2022/01/05 10:43:59;;;;;;;;;;;23.90;47.80;;;;;;1534874;76;1898;-66
2022/01/05 10:46:01;;;;;;;;;;;23.90;47.80;;;;;;1504415;78;1056;-66
2022/01/05 10:48:07;;;;;;;;;;;23.90;47.80;;;;;;1533602;76;717;-66
2022/01/05 10:50:12;;;;;;;;;;;23.90;47.80;;;;;;1502468;79;1137;-65
2022/01/05 10:52:30;;;;;;;;;;;23.90;47.80;;;;;;1503323;77;2017;-67
2022/01/05 10:54:32;;;;;;;;;;;23.90;47.80;;;;;;1513095;78;712;-66
2022/01/05 10:56:34;;;;;;;;;;;23.90;47.80;;;;;;1534900;77;735;-66
2022/01/05 10:58:44;;;;;;;;;;;23.80;47.70;;;;;;1529427;76;928;-66
2022/01/05 11:00:50;;;;;;;;;;;23.90;47.80;;;;;;1499830;79;696;-66
2022/01/05 11:02:52;;;;;;;;;;;23.90;47.70;;;;;;1522116;76;1909;-67
2022/01/05 11:05:11;;;;;;;;;;;23.90;47.80;;;;;;1493660;78;808;-67
2022/01/05 11:07:15;;;;;;;;;;;23.80;47.60;;;;;;1523930;76;714;-66
2022/01/05 11:09:18;;;;;;;;;;;23.80;47.60;;;;;;1521566;76;1825;-68
2022/01/05 11:11:37;;;;;;;;;;;23.90;47.70;;;;;;1510291;78;675;-66
2022/01/05 11:13:41;;;;;;;;;;;23.90;47.70;;;;;;1515692;78;931;-66
2022/01/05 11:15:42;;;;;;;;;;;23.80;47.60;;;;;;1493590;78;1817;-67
2022/01/05 11:18:02;;;;;;;;;;;23.80;47.60;;;;;;1529421;77;730;-67
2022/01/05 11:20:10;;;;;;;;;;;23.80;47.60;;;;;;1520760;77;1186;-66
2022/01/05 11:22:14;;;;;;;;;;;23.80;47.60;;;;;;1527889;77;787;-67
2022/01/05 11:24:16;;;;;;;;;;;23.80;47.60;;;;;;1516536;77;1898;-66
2022/01/05 11:26:18;;;;;;;;;;;23.90;47.60;;;;;;1529123;77;718;-67
2022/01/05 11:28:20;;;;;;;;;;;23.90;47.60;;;;;;1520663;77;737;-66
2022/01/05 11:30:22;;;;;;;;;;;23.90;47.50;;;;;;1529502;77;1147;-67
2022/01/05 11:32:27;;;;;;;;;;;23.90;47.40;;;;;;1528243;77;691;-67
2022/01/05 11:34:28;;;;;;;;;;;23.90;47.40;;;;;;1518073;77;1633;-66
2022/01/05 11:36:30;;;;;;;;;;;23.90;47.40;;;;;;1516400;77;771;-66
2022/01/05 11:38:32;;;;;;;;;;;23.90;47.40;;;;;;1518332;77;695;-69
2022/01/05 11:40:35;;;;;;;;;;;23.90;47.30;;;;;;1519926;77;1225;-69
2022/01/05 11:42:37;;;;;;;;;;;23.90;47.30;;;;;;1513819;77;680;-70
2022/01/05 11:44:46;;;;;;;;;;;23.90;47.40;;;;;;1515461;77;1957;-69
2022/01/05 11:46:48;;;;;;;;;;;23.90;47.30;;;;;;1514459;77;708;-70
2022/01/05 11:49:07;;;;;;;;;;;23.90;47.40;;;;;;1514066;77;1190;-69
2022/01/05 11:51:09;;;;;;;;;;;23.90;47.40;;;;;;1513531;77;700;-69
2022/01/05 11:53:11;;;;;;;;;;;23.90;47.40;;;;;;1511321;77;722;-70
2022/01/05 11:55:13;;;;;;;;;;;23.90;47.30;;;;;;1516834;77;700;-67
2022/01/05 11:57:15;;;;;;;;;;;23.90;47.30;;;;;;1514485;77;852;-67
2022/01/05 11:59:25;;;;;;;;;;;23.90;47.30;;;;;;1519431;77;1176;-67
2022/01/05 12:01:34;;;;;;;;;;;23.90;47.20;;;;;;1511284;77;730;-67
2022/01/05 12:03:57;;;;;;;;;;;23.90;47.20;;;;;;1518281;77;1920;-66
2022/01/05 12:06:04;;;;;;;;;;;23.90;47.20;;;;;;1510044;77;1588;-68
2022/01/05 12:08:06;;;;;;;;;;;23.90;47.20;;;;;;1511862;77;706;-68
2022/01/05 12:10:28;;;;;;;;;;;23.80;47.10;;;;;;1464027;79;1628;-68
2022/01/05 12:12:17;;;;;;;;;;;23.90;47.10;;;;;;1547978;75;1347;-67
2022/01/05 12:14:20;;;;;;;;;;;23.80;47.10;;;;;;1542352;75;1690;-66
2022/01/05 12:16:23;;;;;;;;;;;23.80;47.00;;;;;;1544934;75;683;-69